createdAt,value
2019-05-17T00:00:37.543Z,18.00
2019-05-17T00:03:07.176Z,18.57
2019-05-17T00:05:37.530Z,17.62
2019-05-17T00:08:07.705Z,16.45
2019-05-17T00:10:37.486Z,16.52
2019-05-17T00:13:09.331Z,14.83
2019-05-17T00:15:37.294Z,15.90
2019-05-17T00:18:06.675Z,15.38
2019-05-17T00:20:37.526Z,17.42
2019-05-17T00:23:07.046Z,15.45
2019-05-17T00:25:37.052Z,15.10
2019-05-17T00:28:07.399Z,18.15
2019-05-17T00:30:37.366Z,17.95
2019-05-17T00:33:07.866Z,17.65
2019-05-17T00:35:37.602Z,15.48
2019-05-17T00:38:07.047Z,15.83
2019-05-17T00:40:36.524Z,15.38
2019-05-17T00:43:06.798Z,14.58
2019-05-17T00:45:37.764Z,14.05
2019-05-17T00:48:06.947Z,13.68
2019-05-17T00:50:38.019Z,12.93
2019-05-17T00:53:07.269Z,12.70
2019-05-17T00:55:36.631Z,11.78
2019-05-17T00:58:06.723Z,11.83
2019-05-17T01:00:37.549Z,13.45
2019-05-17T01:03:07.305Z,10.72
2019-05-17T01:05:37.029Z,12.33
2019-05-17T01:08:07.386Z,12.45
2019-05-17T01:10:36.870Z,13.15
2019-05-17T01:13:06.749Z,13.03
2019-05-17T01:15:36.911Z,12.30
2019-05-17T01:18:07.227Z,11.63
2019-05-17T01:20:36.906Z,12.65
2019-05-17T01:23:07.703Z,12.63
2019-05-17T01:25:38.053Z,10.98
2019-05-17T01:28:07.848Z,13.38
2019-05-17T01:30:37.545Z,13.32
2019-05-17T01:33:07.024Z,13.88
2019-05-17T01:35:37.391Z,14.75
2019-05-17T01:38:07.457Z,14.60
2019-05-17T01:40:37.321Z,16.10
2019-05-17T01:43:07.991Z,13.50
2019-05-17T01:45:36.741Z,14.28
2019-05-17T01:48:07.343Z,14.85
2019-05-17T01:50:37.363Z,12.50
2019-05-17T01:53:07.429Z,13.10
2019-05-17T01:55:37.565Z,13.15
2019-05-17T01:58:07.303Z,12.80
2019-05-17T02:00:37.559Z,12.60
2019-05-17T02:03:07.420Z,12.65
2019-05-17T02:05:37.294Z,11.85
2019-05-17T02:08:06.976Z,11.90
2019-05-17T02:10:37.569Z,13.50
2019-05-17T02:13:06.884Z,11.28
2019-05-17T02:15:37.884Z,11.68
2019-05-17T02:18:06.968Z,11.43
2019-05-17T02:20:37.308Z,11.45
2019-05-17T02:23:07.248Z,11.93
2019-05-17T02:25:36.858Z,12.05
2019-05-17T02:28:05.898Z,10.80
2019-05-17T02:30:34.957Z,10.82
2019-05-17T02:33:04.657Z,11.03
2019-05-17T02:35:34.068Z,9.80
2019-05-17T02:38:03.371Z,10.90
2019-05-17T02:40:33.925Z,11.83
2019-05-17T02:43:03.477Z,11.45
2019-05-17T02:45:33.396Z,11.57
2019-05-17T02:48:03.824Z,10.88
2019-05-17T02:50:33.378Z,11.28
2019-05-17T02:53:04.530Z,10.58
2019-05-17T02:55:33.244Z,9.88
2019-05-17T02:58:03.041Z,11.28
2019-05-17T03:00:33.734Z,12.60
2019-05-17T03:03:04.201Z,11.88
2019-05-17T03:05:34.058Z,11.40
2019-05-17T03:08:03.974Z,10.48
2019-05-17T03:10:34.070Z,11.53
2019-05-17T03:13:04.560Z,11.75
2019-05-17T03:15:34.937Z,10.05
2019-05-17T03:18:04.075Z,12.70
2019-05-17T03:20:33.270Z,10.88
2019-05-17T03:23:03.712Z,10.75
2019-05-17T03:25:33.574Z,10.68
2019-05-17T03:28:03.648Z,10.72
2019-05-17T03:30:36.757Z,10.03
2019-05-17T03:33:07.503Z,10.23
2019-05-17T03:35:37.323Z,9.98
2019-05-17T03:38:05.843Z,10.53
2019-05-17T03:41:03.443Z,11.73
2019-05-17T03:43:04.810Z,10.38
2019-05-17T03:45:34.156Z,9.85
2019-05-17T03:48:04.648Z,9.25
2019-05-17T03:50:34.084Z,9.68
2019-05-17T03:53:02.986Z,9.90
2019-05-17T03:55:33.123Z,8.53
2019-05-17T03:58:03.355Z,9.68
2019-05-17T04:00:35.312Z,10.10
2019-05-17T04:03:03.314Z,11.22
2019-05-17T04:05:33.437Z,10.85
2019-05-17T04:08:03.523Z,9.38
2019-05-17T04:10:33.605Z,10.70
2019-05-17T04:13:04.535Z,10.23
2019-05-17T04:15:33.383Z,11.48
2019-05-17T04:18:04.122Z,9.03
2019-05-17T04:20:33.142Z,9.95
2019-05-17T04:23:03.971Z,9.33
2019-05-17T04:25:33.775Z,9.70
2019-05-17T04:28:03.364Z,9.33
2019-05-17T04:30:32.905Z,9.85
2019-05-17T04:33:03.372Z,9.68
2019-05-17T04:35:32.860Z,9.30
2019-05-17T04:38:04.377Z,9.15
2019-05-17T04:40:33.985Z,10.70
2019-05-17T04:43:03.220Z,10.05
2019-05-17T04:45:33.743Z,9.15
2019-05-17T04:48:04.147Z,10.98
2019-05-17T04:50:33.988Z,10.70
2019-05-17T04:53:03.266Z,10.48
2019-05-17T04:55:34.186Z,10.28
2019-05-17T04:58:03.837Z,10.48
2019-05-17T05:00:34.113Z,10.70
2019-05-17T05:03:04.439Z,10.85
2019-05-17T05:05:33.711Z,11.48
2019-05-17T05:08:03.193Z,13.48
2019-05-17T05:10:33.759Z,12.33
2019-05-17T05:13:03.474Z,13.28
2019-05-17T05:15:44.965Z,10.28
2019-05-17T05:18:14.180Z,9.70
2019-05-17T05:20:43.731Z,10.85
2019-05-17T05:23:13.489Z,11.05
2019-05-17T05:25:45.439Z,11.50
2019-05-17T05:28:14.210Z,11.48
2019-05-17T05:30:42.749Z,9.70
2019-05-17T05:33:12.793Z,10.13
2019-05-17T05:35:42.542Z,10.68
2019-05-17T05:38:12.977Z,11.40
2019-05-17T05:40:43.018Z,11.00
2019-05-17T05:43:12.090Z,10.45
2019-05-17T05:45:41.765Z,9.70
2019-05-17T05:48:12.890Z,9.70
2019-05-17T05:50:42.548Z,10.00
2019-05-17T05:53:12.927Z,11.40
2019-05-17T05:55:42.831Z,10.40
2019-05-17T05:58:12.546Z,11.25
2019-05-17T06:00:42.717Z,9.63
2019-05-17T06:03:12.199Z,9.70
2019-05-17T06:05:42.464Z,9.98
2019-05-17T06:08:12.210Z,10.55
2019-05-17T06:10:42.594Z,10.78
2019-05-17T06:13:12.974Z,9.53
2019-05-17T06:15:42.960Z,10.05
2019-05-17T06:18:12.393Z,9.55
2019-05-17T06:20:41.978Z,9.83
2019-05-17T06:23:12.339Z,11.35
2019-05-17T06:25:43.685Z,11.95
2019-05-17T06:28:11.876Z,11.57
2019-05-17T06:30:43.089Z,10.13
2019-05-17T06:33:12.014Z,9.68
2019-05-17T06:35:42.299Z,11.63
2019-05-17T06:38:11.995Z,11.00
2019-05-17T06:40:42.108Z,10.85
2019-05-17T06:43:13.125Z,10.18
2019-05-17T06:45:42.100Z,9.50
2019-05-17T06:48:11.793Z,11.60
2019-05-17T06:50:43.092Z,12.23
2019-05-17T06:53:12.444Z,11.95
2019-05-17T06:55:42.480Z,9.63
2019-05-17T06:58:12.278Z,10.53
2019-05-17T07:00:41.058Z,11.10
2019-05-17T07:03:09.844Z,10.88
2019-05-17T07:05:41.141Z,11.20
2019-05-17T07:08:10.760Z,11.50
2019-05-17T07:10:40.132Z,9.10
2019-05-17T07:13:10.573Z,10.03
2019-05-17T07:15:47.322Z,11.03
2019-05-17T07:18:10.458Z,11.33
2019-05-17T07:20:39.689Z,10.32
2019-05-17T07:23:10.678Z,10.45
2019-05-17T07:25:39.929Z,10.78
2019-05-17T07:28:10.044Z,8.80
2019-05-17T07:30:39.918Z,10.13
2019-05-17T07:33:10.156Z,10.25
2019-05-17T07:35:39.622Z,11.33
2019-05-17T07:38:10.643Z,11.00
2019-05-17T07:40:40.078Z,9.48
2019-05-17T07:43:14.305Z,8.85
2019-05-17T07:45:40.467Z,8.95
2019-05-17T07:48:09.950Z,10.95
2019-05-17T07:50:40.520Z,10.70
2019-05-17T07:53:10.216Z,10.80
2019-05-17T07:55:40.005Z,9.40
2019-05-17T07:58:09.906Z,9.98
2019-05-17T08:00:40.008Z,9.53
2019-05-17T08:03:12.671Z,9.73
2019-05-17T08:05:40.257Z,10.25
2019-05-17T08:08:10.020Z,10.00
2019-05-17T08:10:41.109Z,8.25
2019-05-17T08:13:25.186Z,8.40
2019-05-17T08:15:39.878Z,11.10
2019-05-17T08:18:10.759Z,10.80
2019-05-17T08:20:40.138Z,10.58
2019-05-17T08:23:10.659Z,10.68
2019-05-17T08:25:52.042Z,10.05
2019-05-17T08:28:11.023Z,11.73
2019-05-17T08:30:40.876Z,11.33
2019-05-17T08:33:10.841Z,12.75
2019-05-17T08:35:40.202Z,11.95
2019-05-17T08:38:10.250Z,11.88
2019-05-17T08:40:41.073Z,12.70
2019-05-17T08:43:10.114Z,12.98
2019-05-17T08:45:40.690Z,13.60
2019-05-17T08:48:09.946Z,13.18
2019-05-17T08:50:40.402Z,12.68
2019-05-17T08:53:10.637Z,11.65
2019-05-17T08:55:40.950Z,12.03
2019-05-17T08:58:10.595Z,12.60
2019-05-17T09:00:40.661Z,12.93
2019-05-17T09:03:10.705Z,12.10
2019-05-17T09:05:41.841Z,11.45
2019-05-17T09:08:10.760Z,11.40
2019-05-17T09:10:40.713Z,10.43
2019-05-17T09:13:12.488Z,10.63
2019-05-17T09:15:40.447Z,11.75
2019-05-17T09:18:09.857Z,12.07
2019-05-17T09:20:40.596Z,11.57
2019-05-17T09:23:09.914Z,12.20
2019-05-17T09:25:39.746Z,10.43
2019-05-17T09:28:10.131Z,10.58
2019-05-17T09:30:40.500Z,13.13
2019-05-17T09:33:11.239Z,12.20
2019-05-17T09:35:41.058Z,10.93
2019-05-17T09:38:10.700Z,10.72
2019-05-17T09:40:40.270Z,10.23
2019-05-17T09:43:10.271Z,9.38
2019-05-17T09:45:40.535Z,10.72
2019-05-17T09:48:10.580Z,10.03
2019-05-17T09:50:39.937Z,10.13
2019-05-17T09:53:10.861Z,11.28
2019-05-17T09:55:39.822Z,9.43
2019-05-17T09:58:09.974Z,9.48
2019-05-17T10:00:39.119Z,9.40
2019-05-17T10:03:09.767Z,9.80
2019-05-17T10:05:40.627Z,9.78
2019-05-17T10:08:10.932Z,10.38
2019-05-17T10:10:40.244Z,9.10
2019-05-17T10:13:09.887Z,9.35
2019-05-17T10:15:41.010Z,10.72
2019-05-17T10:18:11.046Z,11.30
2019-05-17T10:20:40.314Z,11.03
2019-05-17T10:23:10.435Z,11.33
2019-05-17T10:25:40.320Z,9.93
2019-05-17T10:28:10.093Z,9.73
2019-05-17T10:30:40.628Z,10.45
2019-05-17T10:33:09.974Z,11.53
2019-05-17T10:35:40.603Z,10.80
2019-05-17T10:38:10.233Z,11.70
2019-05-17T10:40:40.912Z,11.20
2019-05-17T10:43:10.434Z,10.93
2019-05-17T10:45:40.282Z,10.78
2019-05-17T10:48:10.464Z,10.65
2019-05-17T10:50:40.813Z,9.33
2019-05-17T10:53:09.991Z,8.95
2019-05-17T10:55:39.724Z,9.63
2019-05-17T10:58:10.040Z,7.97
2019-05-17T11:00:41.367Z,6.08
2019-05-17T11:03:10.269Z,6.72
2019-05-17T11:05:40.571Z,6.97
2019-05-17T11:08:10.809Z,8.88
2019-05-17T11:10:39.961Z,9.33
2019-05-17T11:13:09.044Z,7.95
2019-05-17T11:15:37.659Z,7.03
2019-05-17T11:18:06.283Z,6.45
2019-05-17T11:20:34.897Z,6.97
2019-05-17T11:23:03.819Z,6.95
2019-05-17T11:25:32.391Z,7.67
2019-05-17T11:28:01.101Z,9.45
2019-05-17T11:30:29.653Z,7.30
2019-05-17T11:32:58.255Z,6.90
2019-05-17T11:35:26.877Z,7.37
2019-05-17T11:37:55.634Z,6.72
2019-05-17T11:40:24.588Z,7.80
2019-05-17T11:42:53.176Z,7.10
2019-05-17T11:45:27.881Z,6.60
2019-05-17T11:47:52.120Z,6.05
2019-05-17T11:50:20.825Z,6.42
2019-05-17T11:52:49.312Z,7.15
2019-05-17T11:55:18.232Z,7.03
2019-05-17T11:57:46.840Z,6.37
2019-05-17T12:00:17.791Z,6.92
2019-05-17T12:02:46.371Z,7.75
2019-05-17T12:05:15.709Z,7.35
2019-05-17T12:07:44.514Z,7.85
2019-05-17T12:10:14.054Z,6.80
2019-05-17T12:12:42.700Z,5.78
2019-05-17T12:15:12.041Z,7.83
2019-05-17T12:17:40.613Z,5.80
2019-05-17T12:20:12.194Z,6.65
2019-05-17T12:22:40.805Z,7.55
2019-05-17T12:25:09.863Z,7.35
2019-05-17T12:27:38.414Z,7.08
2019-05-17T12:30:13.073Z,5.87
2019-05-17T12:32:41.995Z,6.20
2019-05-17T12:35:10.683Z,6.70
2019-05-17T12:37:42.234Z,8.05
2019-05-17T12:40:11.139Z,7.35
2019-05-17T12:42:39.743Z,7.12
2019-05-17T12:45:10.770Z,7.95
2019-05-17T12:47:39.230Z,6.65
2019-05-17T12:50:11.643Z,7.10
2019-05-17T12:52:40.274Z,6.65
2019-05-17T12:55:09.533Z,6.05
2019-05-17T12:57:39.612Z,7.10
2019-05-17T13:00:11.081Z,8.05
2019-05-17T13:02:39.629Z,9.00
2019-05-17T13:05:11.667Z,8.25
2019-05-17T13:07:40.676Z,6.80
2019-05-17T13:10:09.911Z,5.50
2019-05-17T13:12:38.511Z,6.50
2019-05-17T13:15:08.325Z,5.33
2019-05-17T13:17:36.933Z,5.42
2019-05-17T13:20:08.334Z,5.30
2019-05-17T13:22:37.219Z,5.47
2019-05-17T13:25:09.455Z,6.55
2019-05-17T13:27:39.277Z,6.80
2019-05-17T13:30:10.563Z,7.30
2019-05-17T13:32:39.165Z,5.65
2019-05-17T13:35:09.782Z,7.15
2019-05-17T13:37:38.425Z,5.05
2019-05-17T13:40:07.635Z,4.83
2019-05-17T13:42:36.245Z,5.78
2019-05-17T13:45:07.288Z,6.28
2019-05-17T13:47:35.924Z,6.05
2019-05-17T13:50:06.584Z,5.53
2019-05-17T13:52:35.228Z,7.35
2019-05-17T13:55:05.768Z,6.55
2019-05-17T13:57:34.431Z,6.05
2019-05-17T14:00:03.519Z,6.75
2019-05-17T14:02:32.466Z,6.70
2019-05-17T14:05:01.215Z,6.03
2019-05-17T14:07:29.751Z,7.53
2019-05-17T14:09:58.306Z,6.95
2019-05-17T14:12:26.836Z,7.17
2019-05-17T14:14:55.407Z,6.20
2019-05-17T14:17:23.942Z,6.95
2019-05-17T14:19:52.578Z,7.35
2019-05-17T14:22:22.767Z,6.92
2019-05-17T14:24:51.406Z,5.25
2019-05-17T14:27:20.032Z,5.78
2019-05-17T14:29:48.673Z,5.62
2019-05-17T14:32:17.203Z,6.17
2019-05-17T14:34:45.811Z,8.95
2019-05-17T14:37:14.351Z,7.83
2019-05-17T14:39:43.183Z,6.70
2019-05-17T14:42:11.793Z,6.42
2019-05-17T14:44:40.593Z,5.55
2019-05-17T14:47:09.204Z,6.80
2019-05-17T14:49:37.714Z,7.40
2019-05-17T14:52:06.405Z,6.67
2019-05-17T14:54:35.341Z,6.47
2019-05-17T14:57:03.874Z,5.55
2019-05-17T14:59:32.466Z,5.83
2019-05-17T15:02:01.011Z,7.67
2019-05-17T15:04:29.616Z,7.17
2019-05-17T15:07:00.189Z,7.42
2019-05-17T15:09:28.755Z,7.55
2019-05-17T15:11:57.564Z,7.58
2019-05-17T15:14:29.685Z,6.80
2019-05-17T15:16:59.313Z,7.20
2019-05-17T15:19:27.878Z,7.75
2019-05-17T15:21:56.416Z,8.08
2019-05-17T15:24:25.033Z,7.70
2019-05-17T15:27:04.997Z,7.12
2019-05-17T15:29:23.911Z,7.30
2019-05-17T15:31:52.600Z,8.63
2019-05-17T15:36:56.815Z,8.58
2019-05-17T15:39:27.186Z,7.10
2019-05-17T15:41:55.838Z,6.78
2019-05-17T15:44:26.988Z,8.30
2019-05-17T15:46:54.700Z,7.85
2019-05-17T15:49:23.359Z,7.60
2019-05-17T15:51:52.068Z,6.45
2019-05-17T15:54:20.606Z,7.20
2019-05-17T15:56:49.180Z,7.62
2019-05-17T15:59:17.795Z,7.67
2019-05-17T16:01:46.599Z,7.00
2019-05-17T16:04:16.943Z,6.70
2019-05-17T16:06:47.206Z,6.20
2019-05-17T16:09:16.058Z,7.60
2019-05-17T16:11:44.843Z,9.73
2019-05-17T16:14:13.449Z,6.90
2019-05-17T16:16:42.056Z,7.85
2019-05-17T16:19:10.702Z,6.53
2019-05-17T16:21:39.241Z,6.25
2019-05-17T16:24:07.887Z,8.10
2019-05-17T16:26:36.512Z,9.08
2019-05-17T16:29:05.126Z,7.60
2019-05-17T16:31:33.734Z,7.33
2019-05-17T16:34:02.378Z,7.90
2019-05-17T16:36:31.013Z,8.38
2019-05-17T16:38:59.591Z,7.80
2019-05-17T16:41:28.258Z,6.62
2019-05-17T16:43:59.391Z,6.50
2019-05-17T16:46:27.998Z,7.92
2019-05-17T16:48:59.091Z,8.05
2019-05-17T16:51:27.731Z,7.28
2019-05-17T16:53:56.295Z,7.85
2019-05-17T16:56:24.896Z,6.45
2019-05-17T16:58:53.444Z,7.00
2019-05-17T17:01:22.095Z,6.87
2019-05-17T17:03:50.719Z,16.27
2019-05-17T17:06:19.617Z,11.38
2019-05-17T17:08:48.226Z,8.75
2019-05-17T17:11:16.836Z,9.88
2019-05-17T17:13:45.522Z,8.25
2019-05-17T17:16:14.134Z,6.95
2019-05-17T17:18:42.750Z,6.83
2019-05-17T17:21:11.466Z,7.58
2019-05-17T17:23:40.011Z,8.53
2019-05-17T17:26:08.608Z,8.25
2019-05-17T17:28:37.260Z,7.97
2019-05-17T17:31:08.781Z,7.42
2019-05-17T17:33:37.348Z,6.25
2019-05-17T17:36:06.097Z,8.25
2019-05-17T17:38:34.711Z,9.08
2019-05-17T17:41:03.331Z,10.00
2019-05-17T17:43:31.944Z,9.03
2019-05-17T17:46:00.525Z,8.28
2019-05-17T17:48:29.311Z,8.88
2019-05-17T17:50:58.177Z,7.90
2019-05-17T17:53:26.725Z,11.25
2019-05-17T17:55:54.285Z,13.15
2019-05-17T17:58:22.899Z,11.88
2019-05-17T18:00:55.566Z,10.43
2019-05-17T18:03:24.174Z,9.83
2019-05-17T18:05:52.791Z,9.50
2019-05-17T18:08:21.361Z,8.75
2019-05-17T18:10:49.972Z,9.33
2019-05-17T18:13:18.708Z,9.80
2019-05-17T18:15:50.492Z,10.00
2019-05-17T18:18:19.926Z,10.20
2019-05-17T18:20:48.474Z,17.90
2019-05-17T18:23:22.496Z,14.07
2019-05-17T18:25:48.055Z,22.67
2019-05-17T18:28:16.835Z,18.15
2019-05-17T18:30:45.488Z,14.50
2019-05-17T18:33:14.219Z,15.03
2019-05-17T18:35:43.254Z,10.90
2019-05-17T18:38:11.873Z,12.43
2019-05-17T18:40:40.443Z,12.13
2019-05-17T18:43:09.055Z,12.53
2019-05-17T18:45:37.717Z,10.25
2019-05-17T18:48:06.694Z,7.65
2019-05-17T18:50:35.595Z,12.28
2019-05-17T18:53:06.397Z,14.90
2019-05-17T18:55:35.396Z,13.70
2019-05-17T18:58:04.098Z,14.18
2019-05-17T19:00:32.858Z,14.25
2019-05-17T19:03:01.494Z,13.53
2019-05-17T19:05:30.128Z,13.05
2019-05-17T19:08:00.375Z,12.45
2019-05-17T19:10:29.616Z,13.55
2019-05-17T19:12:58.192Z,13.83
2019-05-17T19:15:26.868Z,14.73
2019-05-17T19:17:55.487Z,15.78
2019-05-17T19:20:24.155Z,13.95
2019-05-17T19:22:52.864Z,14.80
2019-05-17T19:25:21.479Z,16.42
2019-05-17T19:27:50.325Z,16.15
2019-05-17T19:30:19.940Z,16.67
2019-05-17T19:32:48.560Z,13.95
2019-05-17T19:35:17.177Z,14.15
2019-05-17T19:37:45.721Z,12.93
2019-05-17T19:40:14.702Z,12.07
2019-05-17T19:42:43.316Z,14.18
2019-05-17T19:45:13.665Z,18.70
2019-05-17T19:47:42.214Z,13.10
2019-05-17T19:50:13.534Z,12.03
2019-05-17T19:52:41.813Z,12.47
2019-05-17T19:55:11.037Z,12.53
2019-05-17T19:57:39.645Z,16.52
2019-05-17T20:00:11.737Z,17.65
2019-05-17T20:02:40.313Z,16.20
2019-05-17T20:05:09.161Z,16.12
2019-05-17T20:07:39.389Z,16.57
2019-05-17T20:10:09.924Z,15.35
2019-05-17T20:12:38.539Z,15.60
2019-05-17T20:15:17.463Z,15.63
2019-05-17T20:17:38.429Z,13.50
2019-05-17T20:20:07.971Z,11.60
2019-05-17T20:22:36.595Z,10.32
2019-05-17T20:25:06.657Z,13.65
2019-05-17T20:27:35.580Z,13.38
2019-05-17T20:30:10.985Z,14.25
2019-05-17T20:32:39.588Z,13.62
2019-05-17T20:35:08.626Z,13.15
2019-05-17T20:37:37.272Z,13.68
2019-05-17T20:40:08.230Z,14.43
2019-05-17T20:42:36.781Z,15.85
2019-05-17T20:45:10.217Z,20.95
2019-05-17T20:47:38.930Z,15.90
2019-05-17T20:50:10.704Z,17.52
2019-05-17T20:52:39.255Z,23.00
2019-05-17T20:55:08.402Z,25.65
2019-05-17T20:57:37.017Z,14.87
2019-05-17T21:00:07.832Z,14.68
2019-05-17T21:02:36.397Z,15.43
2019-05-17T21:05:07.116Z,13.30
2019-05-17T21:07:35.795Z,12.73
2019-05-17T21:10:05.516Z,11.53
2019-05-17T21:12:34.097Z,11.05
2019-05-17T21:15:02.646Z,11.12
2019-05-17T21:17:31.264Z,10.70
2019-05-17T21:19:59.805Z,18.42
2019-05-17T21:22:28.412Z,13.00
2019-05-17T21:24:56.984Z,15.03
2019-05-17T21:27:25.675Z,16.90
2019-05-17T21:29:54.256Z,16.45
2019-05-17T21:32:22.870Z,15.68
2019-05-17T21:34:51.487Z,15.30
2019-05-17T21:37:20.212Z,16.70
2019-05-17T21:39:48.859Z,17.10
2019-05-17T21:42:17.413Z,13.50
2019-05-17T21:44:46.115Z,12.68
2019-05-17T21:47:14.669Z,13.10
2019-05-17T21:49:43.276Z,12.30
2019-05-17T21:52:11.819Z,11.90
2019-05-17T21:54:40.464Z,12.50
2019-05-17T21:57:09.223Z,13.18
2019-05-17T21:59:37.862Z,13.08
2019-05-17T22:02:06.660Z,10.70
2019-05-17T22:04:35.280Z,12.15
2019-05-17T22:07:04.684Z,12.18
2019-05-17T22:09:33.267Z,11.70
2019-05-17T22:12:12.452Z,10.93
2019-05-17T22:14:41.151Z,11.85
2019-05-17T22:17:10.570Z,11.85
2019-05-17T22:19:39.122Z,12.93
2019-05-17T22:22:07.768Z,11.68
2019-05-17T22:24:36.425Z,11.10
2019-05-17T22:27:06.641Z,11.57
2019-05-17T22:29:35.274Z,10.85
2019-05-17T22:32:03.970Z,10.80
2019-05-17T22:34:32.566Z,11.68
2019-05-17T22:37:01.224Z,10.85
2019-05-17T22:39:31.269Z,10.15
2019-05-17T22:42:01.332Z,10.98
2019-05-17T22:44:29.881Z,9.95
2019-05-17T22:46:58.519Z,9.20
2019-05-17T22:49:27.052Z,10.15
2019-05-17T22:51:55.623Z,9.38
2019-05-17T22:54:24.232Z,10.70
2019-05-17T22:56:52.843Z,9.43
2019-05-17T22:59:21.412Z,9.98
2019-05-17T23:01:49.982Z,9.95
2019-05-17T23:04:18.529Z,11.22
2019-05-17T23:06:47.031Z,10.05
2019-05-17T23:09:15.615Z,10.28
2019-05-17T23:11:44.276Z,10.13
2019-05-17T23:14:12.888Z,10.28
2019-05-17T23:16:50.915Z,9.63
2019-05-17T23:19:11.994Z,9.73
2019-05-17T23:21:40.607Z,9.53
2019-05-17T23:24:09.220Z,10.43
2019-05-17T23:26:37.889Z,10.78
2019-05-17T23:29:06.496Z,10.63
2019-05-17T23:31:35.039Z,11.05
2019-05-17T23:34:03.643Z,9.93
2019-05-17T23:36:32.283Z,9.63
2019-05-17T23:39:01.003Z,10.00
2019-05-17T23:41:29.532Z,10.30
2019-05-17T23:43:58.282Z,9.30
2019-05-17T23:46:26.823Z,9.78
2019-05-17T23:48:55.357Z,9.95
2019-05-17T23:51:23.960Z,9.98
2019-05-17T23:53:52.576Z,9.68
2019-05-17T23:56:21.170Z,10.10
2019-05-17T23:58:49.793Z,9.80
